Terminal Aerodrome Forecast
Issued by NWS

Current Version | Previous Version | Text Only | Print | Product List | Glossary Off
Versions: 1 2 3 4 5 6 7 8 9 10 11 12 13 14 15 16 17 18 19 20 21 22

609
FTUS41 KRLX 041720
TAFCKB
TAF
KCKB 041720Z 0418/0518 26009KT P6SM OVC035
     FM042100 30006KT 6SM -SHSN BKN020
     FM050700 30005KT P6SM BKN025
     FM051600 27005KT P6SM SCT030 BKN250=

USA.gov is the U.S. government's official web portal to all federal, state and local government web resources and services.